Terminal Aerodrome Forecast
Issued by NWS

Home | Current Version | Previous Version | Text Only | Print | Product List | Glossary On
Versions: 1 2 3 4 5 6 7 8 9 10 11 12 13 14 15
000
FTUS45 KRIW 251138
TAFBPI
TAF
KBPI 251138Z 2512/2612 VRB06KT P6SM FEW070
     FM251500 17007KT P6SM FEW100
     FM252100 18007KT P6SM VCSH SCT050 BKN080
     FM260500 VRB05KT P6SM SCT060 BKN100=

USA.gov is the U.S. government's official web portal to all federal, state and local government web resources and services.